Time;durP1;ratioP1;P1;durP2;ratioP2;P2;SDS_P1;SDS_P2;PMS_P1;PMS_P2;Temp;Humidity;BMP_temperature;BMP_pressure;BME280_temperature;BME280_humidity;BME280_pressure;Samples;Min_cycle;Max_cycle;Signal;HPM_P1;HPM_P2
2021/08/24 00:01:52;;;;;;;6.50;4.33;;;;;;;22.06;44.31;95184.00;5048557;28;20204;-65
2021/08/24 00:04:19;;;;;;;7.80;4.83;;;;;;;22.23;44.17;95179.69;5049354;28;20188;-67
2021/08/24 00:06:46;;;;;;;5.70;4.67;;;;;;;22.33;43.76;95180.16;5049749;28;20189;-67
2021/08/24 00:09:13;;;;;;;6.70;4.67;;;;;;;22.37;43.89;95183.72;5050242;28;20554;-68
2021/08/24 00:11:40;;;;;;;5.83;4.30;;;;;;;22.24;44.24;95182.06;5049338;28;20193;-70
2021/08/24 00:14:09;;;;;;;7.90;5.20;;;;;;;22.34;44.08;95165.69;5049258;28;20200;-66
2021/08/24 00:16:36;;;;;;;4.97;4.47;;;;;;;22.29;44.62;95173.88;5046784;28;20667;-64
2021/08/24 00:19:03;;;;;;;5.70;4.30;;;;;;;22.25;44.55;95174.81;5033091;28;20194;-68
2021/08/24 00:21:29;;;;;;;9.57;4.93;;;;;;;22.12;45.02;95173.94;5045679;28;20736;-64
2021/08/24 00:23:56;;;;;;;9.33;5.30;;;;;;;22.27;44.94;95173.41;5051444;28;20196;-64
2021/08/24 00:26:23;;;;;;;6.37;4.80;;;;;;;22.11;45.42;95159.03;5039221;28;20325;-66
2021/08/24 00:28:50;;;;;;;7.00;4.73;;;;;;;22.05;45.52;95166.44;5053486;28;20188;-67
2021/08/24 00:31:17;;;;;;;6.67;4.50;;;;;;;21.85;46.01;95163.69;5041949;28;20197;-66
2021/08/24 00:33:44;;;;;;;8.30;5.20;;;;;;;21.99;45.73;95161.59;5033200;28;20229;-64
2021/08/24 00:36:13;;;;;;;6.90;4.93;;;;;;;21.96;45.67;95160.38;5044849;28;20278;-64
2021/08/24 00:38:41;;;;;;;5.90;4.90;;;;;;;22.10;45.67;95162.81;5038859;28;20192;-64
2021/08/24 00:41:09;;;;;;;5.87;4.90;;;;;;;21.97;45.84;95153.13;5052439;28;20655;-68
2021/08/24 00:43:39;;;;;;;7.23;5.20;;;;;;;22.17;45.55;95155.06;5038821;28;20225;-64
2021/08/24 00:46:26;;;;;;;8.07;5.40;;;;;;;22.03;46.10;95162.53;5043764;28;20220;-65
2021/08/24 00:48:55;;;;;;;9.30;5.40;;;;;;;22.04;45.70;95164.09;5051143;28;20245;-65
2021/08/24 00:51:25;;;;;;;7.73;4.90;;;;;;;22.05;46.03;95161.09;5044142;28;20189;-65
2021/08/24 00:53:53;;;;;;;13.80;5.40;;;;;;;22.05;45.80;95160.31;5045740;28;20284;-66
2021/08/24 00:56:21;;;;;;;6.20;5.20;;;;;;;22.05;46.18;95161.09;5032801;28;20189;-69
2021/08/24 00:58:48;;;;;;;6.30;4.93;;;;;;;21.97;45.99;95161.91;5046579;28;20207;-65
2021/08/24 01:01:15;;;;;;;6.80;4.60;;;;;;;21.92;46.31;95167.44;5046457;28;20193;-67
2021/08/24 01:03:47;;;;;;;6.93;5.13;;;;;;;21.86;46.82;95163.38;5045518;28;20667;-67
2021/08/24 01:06:34;;;;;;;8.30;5.50;;;;;;;21.92;46.87;95158.63;5052584;28;20315;-67
2021/08/24 01:09:10;;;;;;;8.40;5.23;;;;;;;21.85;47.08;95158.34;5052699;28;20338;-65
2021/08/24 01:11:48;;;;;;;5.83;5.23;;;;;;;21.78;47.29;95158.03;5052498;28;20211;-65
2021/08/24 01:14:27;;;;;;;7.17;4.97;;;;;;;21.81;47.24;95154.75;5052727;28;20234;-64
2021/08/24 01:17:18;;;;;;;9.27;5.93;;;;;;;21.81;47.46;95157.41;5052043;28;20262;-66
2021/08/24 01:20:18;;;;;;;7.77;5.77;;;;;;;21.83;47.46;95156.00;5052898;28;20239;-65
2021/08/24 01:22:54;;;;;;;9.50;5.87;;;;;;;21.61;47.98;95150.88;5039398;28;20209;-66
2021/08/24 01:25:37;;;;;;;7.57;5.47;;;;;;;21.50;48.17;95156.84;5038790;28;20220;-67
2021/08/24 01:28:08;;;;;;;6.53;5.10;;;;;;;21.62;48.00;95151.66;5051774;28;20372;-66
2021/08/24 01:30:44;;;;;;;12.60;5.67;;;;;;;21.65;48.13;95159.00;5036336;28;20197;-66
2021/08/24 01:33:50;;;;;;;9.33;5.60;;;;;;;21.54;48.40;95157.78;5038334;28;20247;-69
2021/08/24 01:36:28;;;;;;;9.70;5.70;;;;;;;21.49;48.73;95157.97;5044774;28;20212;-68
2021/08/24 01:39:08;;;;;;;6.20;5.50;;;;;;;21.35;49.29;95162.69;5035961;28;20696;-66
2021/08/24 01:41:54;;;;;;;9.53;5.63;;;;;;;21.35;49.15;95154.69;5036824;28;20275;-66
2021/08/24 01:44:23;;;;;;;7.90;5.63;;;;;;;21.28;49.61;95157.81;5038056;28;20749;-66
2021/08/24 01:47:05;;;;;;;6.37;5.63;;;;;;;21.18;50.17;95153.59;5038699;28;20703;-68
2021/08/24 01:50:21;;;;;;;7.77;5.70;;;;;;;21.08;50.62;95159.28;5054957;28;20211;-65
2021/08/24 01:53:26;;;;;;;7.27;5.47;;;;;;;21.09;50.68;95155.50;5052125;28;20271;-65
2021/08/24 01:55:59;;;;;;;8.30;5.83;;;;;;;21.01;51.00;95158.97;5051133;28;20201;-68
2021/08/24 01:58:29;;;;;;;12.83;6.03;;;;;;;20.98;51.09;95164.09;5047499;28;20778;-68
2021/08/24 02:00:57;;;;;;;8.93;6.23;;;;;;;20.98;51.06;95158.78;5050505;28;20221;-69
2021/08/24 02:03:32;;;;;;;8.43;5.63;;;;;;;21.07;50.79;95155.03;5032458;28;20239;-68
2021/08/24 02:06:22;;;;;;;7.43;5.77;;;;;;;21.05;50.97;95151.91;5048897;28;20247;-68
2021/08/24 02:09:01;;;;;;;7.87;5.40;;;;;;;21.00;51.07;95151.28;5050812;28;20235;-66
2021/08/24 02:11:32;;;;;;;11.07;6.40;;;;;;;20.93;51.56;95146.38;5037493;28;20254;-66
2021/08/24 02:14:05;;;;;;;7.73;5.80;;;;;;;20.97;51.24;95150.00;5051509;28;20205;-66
2021/08/24 02:16:34;;;;;;;8.03;6.00;;;;;;;20.94;51.61;95153.28;5033412;28;20198;-68
2021/08/24 02:19:08;;;;;;;8.00;6.43;;;;;;;20.95;51.61;95154.84;5041666;28;20197;-68
2021/08/24 02:22:00;;;;;;;7.83;5.57;;;;;;;20.95;51.46;95146.06;5050608;28;20196;-67
2021/08/24 02:24:34;;;;;;;7.43;6.30;;;;;;;20.82;52.08;95142.47;5038393;28;20239;-69
2021/08/24 02:27:07;;;;;;;8.73;6.60;;;;;;;20.94;51.79;95153.28;5037378;28;20295;-67
2021/08/24 02:29:34;;;;;;;8.40;5.97;;;;;;;20.83;51.79;95140.59;5051169;28;20232;-64
2021/08/24 02:32:09;;;;;;;7.50;6.63;;;;;;;20.92;51.69;95144.81;5045680;28;20235;-65
2021/08/24 02:34:56;;;;;;;10.07;6.20;;;;;;;20.91;51.93;95142.47;5031804;28;20201;-66
2021/08/24 02:37:43;;;;;;;9.53;6.03;;;;;;;20.88;51.77;95143.88;5030787;28;20766;-68
2021/08/24 02:40:29;;;;;;;11.37;5.90;;;;;;;20.95;52.06;95138.88;5043917;28;20200;-64
2021/08/24 02:43:12;;;;;;;9.10;6.40;;;;;;;20.93;52.07;95141.06;5042298;28;20300;-65
2021/08/24 02:45:47;;;;;;;8.53;6.17;;;;;;;20.94;52.15;95137.31;5049313;28;20212;-65
2021/08/24 02:48:16;;;;;;;7.47;6.40;;;;;;;20.87;52.14;95137.00;5038239;28;20193;-68
2021/08/24 02:50:44;;;;;;;10.13;5.90;;;;;;;20.84;52.37;95126.94;5030157;28;20185;-68
2021/08/24 02:53:11;;;;;;;8.27;7.07;;;;;;;20.73;52.68;95133.69;5031478;28;20220;-66
2021/08/24 02:55:38;;;;;;;11.43;7.13;;;;;;;20.73;52.65;95132.94;5046252;28;20197;-68
2021/08/24 02:58:05;;;;;;;7.47;6.53;;;;;;;20.75;53.14;95134.16;5051228;28;20272;-68
2021/08/24 03:00:33;;;;;;;12.27;6.63;;;;;;;20.68;53.11;95128.53;5035357;28;20209;-64
2021/08/24 03:03:00;;;;;;;8.13;6.67;;;;;;;20.70;53.26;95136.19;5037398;28;20686;-64
2021/08/24 03:05:27;;;;;;;9.90;6.40;;;;;;;20.71;53.10;95135.88;5037745;28;20594;-67
2021/08/24 03:07:54;;;;;;;10.43;7.10;;;;;;;20.65;53.33;95139.81;5032629;28;20197;-65
2021/08/24 03:10:25;;;;;;;9.47;6.67;;;;;;;20.69;53.36;95130.06;5030048;28;20201;-66
2021/08/24 03:13:12;;;;;;;9.00;7.13;;;;;;;20.67;53.40;95132.28;5044786;28;20197;-68
2021/08/24 03:16:01;;;;;;;8.73;6.43;;;;;;;20.48;54.29;95134.44;5043051;28;20564;-66
2021/08/24 03:18:39;;;;;;;8.97;6.77;;;;;;;20.51;53.81;95141.81;5036133;28;20199;-67
2021/08/24 03:21:11;;;;;;;7.23;6.50;;;;;;;20.40;54.09;95134.44;5036732;28;20212;-65
2021/08/24 03:23:42;;;;;;;13.40;7.50;;;;;;;20.48;54.19;95129.13;5036575;28;20203;-65
2021/08/24 03:26:11;;;;;;;10.40;7.00;;;;;;;20.45;54.33;95132.41;5037096;28;20231;-65
2021/08/24 03:28:42;;;;;;;9.30;6.10;;;;;;;20.44;54.19;95120.19;5035586;28;20204;-67
2021/08/24 03:31:14;;;;;;;9.20;6.70;;;;;;;20.35;54.65;95130.03;5037725;28;20201;-67
2021/08/24 03:33:42;;;;;;;10.67;6.73;;;;;;;20.12;55.24;95123.25;5030126;28;20227;-67
2021/08/24 03:36:09;;;;;;;8.03;7.13;;;;;;;20.20;55.59;95127.81;5040664;28;20192;-64
2021/08/24 03:38:37;;;;;;;13.13;7.27;;;;;;;20.18;55.16;95130.78;5035888;28;20196;-66
2021/08/24 03:41:06;;;;;;;9.00;7.30;;;;;;;20.13;55.52;95132.78;5049704;28;20232;-66
2021/08/24 03:43:34;;;;;;;9.67;6.47;;;;;;;20.21;55.17;95124.06;5049734;28;20196;-68
2021/08/24 03:46:02;;;;;;;9.73;6.97;;;;;;;20.36;54.71;95128.97;5049553;28;20224;-68
2021/08/24 03:48:29;;;;;;;12.13;6.80;;;;;;;20.27;55.06;95122.06;5034656;28;20200;-68
2021/08/24 03:50:56;;;;;;;10.87;6.97;;;;;;;20.32;54.68;95130.66;5035237;28;20203;-65
2021/08/24 03:53:23;;;;;;;11.00;7.30;;;;;;;20.22;55.01;95122.97;5038363;28;20204;-64
2021/08/24 03:55:50;;;;;;;11.10;7.30;;;;;;;20.12;55.56;95126.69;5047059;28;20260;-65
2021/08/24 03:58:17;;;;;;;12.57;7.40;;;;;;;20.24;55.48;95128.75;5052582;28;20567;-66
2021/08/24 04:00:46;;;;;;;17.20;7.40;;;;;;;20.24;55.26;95120.78;5041490;28;20197;-65
2021/08/24 04:03:14;;;;;;;10.53;7.10;;;;;;;20.20;55.25;95129.72;5040969;28;20200;-73
2021/08/24 04:05:41;;;;;;;19.13;8.50;;;;;;;20.14;55.49;95134.34;5049279;28;20684;-70
2021/08/24 04:08:09;;;;;;;17.87;8.50;;;;;;;20.12;55.29;95137.34;5042491;28;20576;-66
2021/08/24 04:10:37;;;;;;;14.13;8.00;;;;;;;20.17;55.86;95136.41;5047756;28;20193;-68
2021/08/24 04:13:04;;;;;;;13.47;8.47;;;;;;;20.20;55.69;95143.00;5042736;28;20196;-68
2021/08/24 04:15:31;;;;;;;14.47;8.00;;;;;;;20.24;55.70;95139.41;5041256;28;20220;-75
2021/08/24 04:17:58;;;;;;;12.50;7.57;;;;;;;20.32;55.49;95130.66;5047334;28;20203;-73
2021/08/24 04:20:25;;;;;;;10.87;7.67;;;;;;;20.44;54.86;95138.81;5052664;28;20208;-68
2021/08/24 04:22:52;;;;;;;16.97;8.47;;;;;;;20.31;55.10;95136.31;5043479;28;20211;-66
2021/08/24 04:25:19;;;;;;;14.77;7.90;;;;;;;20.48;55.06;95141.66;5038086;28;20197;-67
2021/08/24 04:27:47;;;;;;;12.60;7.60;;;;;;;20.43;55.30;95142.59;5043395;28;20196;-76
2021/08/24 04:30:14;;;;;;;12.73;8.40;;;;;;;20.41;55.65;95138.66;5046638;28;20205;-70
2021/08/24 04:32:44;;;;;;;10.83;7.97;;;;;;;20.35;55.84;95140.69;5047782;28;20850;-69
2021/08/24 04:35:12;;;;;;;11.40;8.17;;;;;;;20.37;55.43;95146.50;5040738;28;20196;-67
2021/08/24 04:37:39;;;;;;;16.20;8.40;;;;;;;20.29;55.38;95147.25;5049957;28;20200;-72
2021/08/24 04:40:07;;;;;;;12.67;9.10;;;;;;;20.31;55.57;95144.28;5050507;28;20200;-68
2021/08/24 04:42:34;;;;;;;13.30;8.63;;;;;;;20.24;55.99;95150.06;5043796;28;20228;-74
2021/08/24 04:45:03;;;;;;;11.40;7.77;;;;;;;20.41;55.42;95150.09;5046774;28;20204;-69
2021/08/24 04:47:29;;;;;;;18.87;9.07;;;;;;;20.50;55.05;95152.78;5040825;28;20216;-72
2021/08/24 04:49:56;;;;;;;15.60;8.80;;;;;;;20.55;54.97;95153.41;5033960;28;20197;-72
2021/08/24 04:52:23;;;;;;;11.30;8.40;;;;;;;20.47;55.31;95154.19;5033872;28;20201;-73
2021/08/24 04:54:50;;;;;;;12.87;8.30;;;;;;;20.45;55.60;95155.59;5034304;28;20193;-74
2021/08/24 04:57:17;;;;;;;12.63;8.20;;;;;;;20.43;55.41;95147.91;5036676;28;20296;-68
2021/08/24 04:59:44;;;;;;;15.23;8.90;;;;;;;20.47;55.24;95158.72;5040642;28;20215;-73
2021/08/24 05:02:11;;;;;;;15.27;9.20;;;;;;;20.55;55.04;95149.94;5035530;28;20266;-73
2021/08/24 05:04:38;;;;;;;20.23;8.73;;;;;;;20.49;55.24;95159.97;5036300;28;20232;-72
2021/08/24 05:07:05;;;;;;;12.50;8.13;;;;;;;20.51;55.30;95154.34;5043191;28;20224;-72
2021/08/24 05:09:32;;;;;;;11.80;9.10;;;;;;;20.51;55.32;95160.44;5039516;28;20201;-75
2021/08/24 05:11:59;;;;;;;14.27;9.67;;;;;;;20.61;55.09;95160.16;5036350;28;20201;-71
2021/08/24 05:14:26;;;;;;;18.47;9.17;;;;;;;20.57;55.37;95159.22;5040560;28;20696;-75
2021/08/24 05:16:56;;;;;;;17.13;9.43;;;;;;;20.67;55.67;95158.13;5045946;28;20196;-68
2021/08/24 05:19:23;;;;;;;19.30;8.33;;;;;;;20.61;55.61;95165.47;5035179;28;20201;-71
2021/08/24 05:21:51;;;;;;;13.97;8.87;;;;;;;20.63;55.50;95163.31;5041491;28;20236;-72
2021/08/24 05:24:17;;;;;;;12.57;8.60;;;;;;;20.58;56.19;95160.78;5040239;28;20599;-70
2021/08/24 05:26:45;;;;;;;15.80;9.07;;;;;;;20.54;56.39;95165.16;5040112;28;20216;-75
2021/08/24 05:29:16;;;;;;;16.10;8.77;;;;;;;20.48;56.26;95146.97;5037459;28;20204;-69
2021/08/24 05:31:44;;;;;;;19.10;9.37;;;;;;;20.62;56.13;95167.03;5034170;28;20212;-72
2021/08/24 05:34:11;;;;;;;21.43;9.73;;;;;;;20.50;56.40;95153.56;5036626;28;20205;-70
2021/08/24 05:36:38;;;;;;;22.43;8.83;;;;;;;20.66;56.21;95162.66;5035755;28;20589;-69
2021/08/24 05:39:05;;;;;;;25.30;9.37;;;;;;;20.77;55.51;95147.94;5045139;28;20196;-67
2021/08/24 05:41:32;;;;;;;21.63;9.07;;;;;;;20.83;55.55;95162.69;5037935;28;20233;-74
2021/08/24 05:43:59;;;;;;;20.90;9.73;;;;;;;20.75;55.85;95165.31;5036277;28;20236;-71
2021/08/24 05:46:26;;;;;;;17.67;8.83;;;;;;;20.67;56.40;95168.78;5034477;28;20287;-72
2021/08/24 05:48:53;;;;;;;20.37;9.13;;;;;;;20.76;56.21;95167.69;5041494;28;20231;-72
2021/08/24 05:51:22;;;;;;;19.93;9.23;;;;;;;20.74;56.18;95166.44;5038110;28;20201;-71
2021/08/24 05:53:50;;;;;;;15.20;9.17;;;;;;;20.88;55.67;95162.53;5037612;28;20209;-75
2021/08/24 05:56:20;;;;;;;16.40;8.47;;;;;;;21.08;54.57;95156.59;5039070;28;20228;-70
2021/08/24 05:58:48;;;;;;;61.67;48.63;;;;;;;21.08;55.05;95159.28;5037061;28;20204;-72
2021/08/24 06:01:21;;;;;;;20.83;14.13;;;;;;;21.21;55.26;95156.75;5033248;28;20197;-74
2021/08/24 06:03:48;;;;;;;20.87;9.57;;;;;;;21.21;55.32;95162.84;5033958;28;20201;-75
2021/08/24 06:06:21;;;;;;;52.27;39.40;;;;;;;21.40;54.24;95155.31;5041465;28;20229;-72
2021/08/24 06:08:48;;;;;;;26.03;12.70;;;;;;;21.48;54.19;95159.03;5038268;28;20205;-74
2021/08/24 06:11:30;;;;;;;27.47;11.13;;;;;;;21.64;53.05;95149.47;5045768;28;20200;-73
2021/08/24 06:13:59;;;;;;;23.73;10.30;;;;;;;21.32;54.26;95144.66;5039759;28;20200;-74
2021/08/24 06:16:26;;;;;;;28.30;10.20;;;;;;;21.37;54.39;95149.84;5041083;28;20204;-73
2021/08/24 06:18:53;;;;;;;20.87;10.03;;;;;;;21.49;53.65;95152.63;5038409;28;20718;-69
2021/08/24 06:21:20;;;;;;;17.40;9.33;;;;;;;21.55;53.07;95149.47;5039561;28;20201;-74
2021/08/24 06:23:49;;;;;;;16.40;8.97;;;;;;;21.45;53.54;95149.03;5039863;28;20196;-71
2021/08/24 06:26:16;;;;;;;18.67;9.97;;;;;;;21.66;53.25;95148.03;5041262;28;20207;-69
2021/08/24 06:28:44;;;;;;;22.73;10.43;;;;;;;21.75;52.69;95145.34;5036041;28;20584;-70
2021/08/24 06:31:17;;;;;;;20.57;9.97;;;;;;;21.63;53.32;95143.34;5038777;28;20670;-65
2021/08/24 06:33:45;;;;;;;18.93;10.13;;;;;;;21.68;53.04;95145.81;5034537;28;20259;-67
2021/08/24 06:36:12;;;;;;;19.87;10.50;;;;;;;21.87;53.49;95148.94;5035873;28;20197;-72
2021/08/24 06:38:42;;;;;;;13.50;8.73;;;;;;;22.09;52.56;95139.91;5034565;28;20203;-72
2021/08/24 06:41:09;;;;;;;16.90;9.30;;;;;;;22.02;52.38;95134.28;5034665;28;20714;-69
2021/08/24 06:43:36;;;;;;;15.87;10.17;;;;;;;22.34;51.80;95140.84;5037871;28;20197;-69
2021/08/24 06:46:05;;;;;;;16.93;10.87;;;;;;;22.36;51.39;95139.44;5034642;28;20193;-67
2021/08/24 06:48:32;;;;;;;17.93;10.23;;;;;;;22.33;51.73;95133.97;5034642;28;20284;-68
2021/08/24 06:50:59;;;;;;;17.83;10.77;;;;;;;22.29;51.21;95139.16;5034600;28;20201;-64
2021/08/24 06:53:26;;;;;;;17.93;11.10;;;;;;;22.32;51.59;95148.41;5034575;28;20275;-65
2021/08/24 06:55:53;;;;;;;87.50;68.83;;;;;;;22.52;51.54;95142.31;5034281;28;20205;-64
2021/08/24 06:58:21;;;;;;;36.07;29.97;;;;;;;22.63;50.58;95133.63;5033681;28;20228;-68
2021/08/24 07:00:48;;;;;;;15.23;11.33;;;;;;;22.88;49.91;95151.38;5044584;28;20199;-66
2021/08/24 07:03:16;;;;;;;13.83;10.60;;;;;;;23.01;48.88;95147.66;5040512;28;20184;-67
2021/08/24 07:05:46;;;;;;;17.37;12.03;;;;;;;22.98;49.29;95150.97;5043000;28;20197;-72
2021/08/24 07:08:14;;;;;;;46.33;36.50;;;;;;;23.14;49.04;95149.28;5029321;28;20781;-65
2021/08/24 07:10:41;;;;;;;20.83;12.40;;;;;;;23.18;48.57;95144.06;5036338;28;20208;-70
2021/08/24 07:13:08;;;;;;;17.57;11.23;;;;;;;23.29;48.92;95144.41;5047881;28;20205;-66
2021/08/24 07:15:38;;;;;;;13.23;10.13;;;;;;;23.34;48.60;95136.25;5033502;28;20185;-71
2021/08/24 07:18:06;;;;;;;16.57;11.90;;;;;;;23.45;48.12;95138.16;5037126;28;20760;-67
2021/08/24 07:20:33;;;;;;;28.87;22.67;;;;;;;23.53;48.61;95144.53;5035758;28;20192;-68
2021/08/24 07:23:02;;;;;;;22.87;16.17;;;;;;;23.77;47.80;95133.88;5034960;28;20203;-70
2021/08/24 07:25:37;;;;;;;12.10;8.87;;;;;;;23.67;47.58;95139.66;5039181;28;20282;-71
2021/08/24 07:28:10;;;;;;;17.97;9.93;;;;;;;23.68;47.36;95135.88;5041903;28;20220;-68
2021/08/24 07:30:39;;;;;;;13.60;9.30;;;;;;;23.76;47.69;95134.97;5035538;28;20650;-65
2021/08/24 07:33:08;;;;;;;13.33;9.57;;;;;;;23.93;47.05;95132.13;5029352;28;20232;-67
2021/08/24 07:35:36;;;;;;;12.63;9.10;;;;;;;23.88;47.29;95135.03;5038255;28;20197;-69
2021/08/24 07:38:03;;;;;;;12.33;9.30;;;;;;;23.97;46.07;95127.66;5045820;28;20605;-64
2021/08/24 07:40:31;;;;;;;13.80;9.17;;;;;;;24.01;45.86;95133.94;5038631;28;20235;-64
2021/08/24 07:43:00;;;;;;;14.03;9.17;;;;;;;24.06;47.05;95131.06;5038796;28;20212;-68
2021/08/24 07:45:27;;;;;;;11.47;9.83;;;;;;;24.10;45.90;95127.34;5038556;28;20197;-71
2021/08/24 07:47:54;;;;;;;13.00;8.87;;;;;;;24.21;45.96;95124.25;5040253;28;20221;-67
2021/08/24 07:50:21;;;;;;;14.60;9.23;;;;;;;24.23;46.21;95133.53;5035602;28;20211;-68
2021/08/24 07:52:50;;;;;;;12.50;8.70;;;;;;;24.30;45.98;95114.19;5043885;28;20211;-69
2021/08/24 07:55:18;;;;;;;56.67;47.00;;;;;;;24.54;46.10;95119.53;5039560;28;20201;-64
2021/08/24 07:57:45;;;;;;;32.73;26.40;;;;;;;24.55;45.05;95115.72;5048854;28;20211;-65
2021/08/24 08:00:13;;;;;;;14.07;8.97;;;;;;;24.65;44.72;95115.28;5038569;28;20283;-66
2021/08/24 08:02:40;;;;;;;18.23;9.87;;;;;;;24.77;44.45;95116.06;5043768;28;20284;-70
2021/08/24 08:05:09;;;;;;;14.80;9.57;;;;;;;24.84;43.70;95113.56;5034154;28;20258;-71
2021/08/24 08:07:37;;;;;;;12.50;9.50;;;;;;;24.95;43.70;95109.28;5035502;28;20267;-65
2021/08/24 08:10:05;;;;;;;12.77;8.90;;;;;;;24.97;44.23;95111.63;5034514;28;20207;-67
2021/08/24 08:12:32;;;;;;;12.57;8.70;;;;;;;25.25;43.17;95106.28;5032116;28;20224;-67
2021/08/24 08:15:00;;;;;;;14.97;9.40;;;;;;;25.17;43.79;95109.88;5034456;28;20197;-65
2021/08/24 08:17:27;;;;;;;32.57;21.07;;;;;;;25.25;44.42;95125.03;5037128;28;20201;-68
2021/08/24 08:19:54;;;;;;;15.57;11.23;;;;;;;25.36;43.17;95108.13;5044263;28;20201;-70
2021/08/24 08:22:21;;;;;;;11.90;9.63;;;;;;;25.64;42.78;95113.47;5039589;28;20209;-68
2021/08/24 08:24:48;;;;;;;17.80;8.67;;;;;;;25.64;42.48;95113.47;5049392;28;20200;-66
2021/08/24 08:27:15;;;;;;;13.50;8.50;;;;;;;25.41;42.30;95110.59;5046484;28;20287;-67
2021/08/24 08:29:42;;;;;;;14.80;9.60;;;;;;;25.25;42.23;95117.00;5044074;28;20222;-67
2021/08/24 08:32:13;;;;;;;16.07;9.53;;;;;;;25.56;43.04;95101.00;5049681;28;20228;-71
2021/08/24 08:34:42;;;;;;;10.93;8.50;;;;;;;25.52;41.86;95095.53;5049221;28;20196;-72
2021/08/24 08:37:09;;;;;;;146.73;132.80;;;;;;;25.82;42.95;95098.59;5040090;28;20204;-71
2021/08/24 08:39:36;;;;;;;41.97;37.70;;;;;;;25.91;40.94;95093.84;5049305;28;20193;-66
2021/08/24 08:42:18;;;;;;;17.10;8.50;;;;;;;25.99;40.63;95093.66;5049199;28;20227;-69
2021/08/24 08:45:16;;;;;;;11.17;7.37;;;;;;;25.97;39.42;95100.47;5046488;28;20219;-68
2021/08/24 08:48:01;;;;;;;15.40;7.93;;;;;;;26.12;39.33;95086.31;5050207;28;20216;-72
2021/08/24 08:50:49;;;;;;;10.23;7.33;;;;;;;26.38;39.11;95089.22;5048615;28;20528;-66
2021/08/24 08:53:25;;;;;;;13.03;7.80;;;;;;;26.50;37.85;95081.03;5048114;28;20215;-65
2021/08/24 08:56:15;;;;;;;10.90;7.17;;;;;;;26.58;37.33;95077.38;5053355;28;20196;-68
2021/08/24 08:59:04;;;;;;;10.37;7.27;;;;;;;26.68;37.74;95071.47;5053831;28;20208;-65
2021/08/24 09:01:42;;;;;;;9.80;7.80;;;;;;;26.78;37.79;95075.50;5053008;28;20212;-67
2021/08/24 09:04:43;;;;;;;10.17;6.40;;;;;;;26.88;35.89;95074.94;5043949;28;20200;-68
2021/08/24 09:07:30;;;;;;;9.23;6.73;;;;;;;27.11;35.67;95069.63;5041209;28;20656;-67
2021/08/24 09:10:00;;;;;;;12.47;6.70;;;;;;;27.19;34.76;95079.41;5044082;28;20287;-66
2021/08/24 09:12:30;;;;;;;11.03;6.63;;;;;;;27.00;34.46;95072.91;5043809;28;20657;-66
2021/08/24 09:15:00;;;;;;;10.20;6.37;;;;;;;27.00;34.76;95078.28;5051970;28;20232;-71
2021/08/24 09:17:38;;;;;;;10.97;6.50;;;;;;;27.27;34.76;95070.31;5041376;28;20310;-70
2021/08/24 09:20:21;;;;;;;12.07;6.83;;;;;;;27.44;34.43;95061.81;5037418;28;20218;-68
2021/08/24 09:22:49;;;;;;;10.67;5.80;;;;;;;27.37;34.12;95053.63;5052598;28;20282;-66
2021/08/24 09:25:44;;;;;;;9.50;6.70;;;;;;;27.43;34.33;95062.94;5032203;28;20229;-67
2021/08/24 09:28:27;;;;;;;7.53;6.60;;;;;;;27.28;32.47;95061.13;5047449;28;20226;-74
2021/08/24 09:31:00;;;;;;;8.73;6.90;;;;;;;27.40;33.43;95060.97;5052375;28;20561;-68
2021/08/24 09:33:28;;;;;;;11.30;6.30;;;;;;;27.54;32.88;95058.53;5052697;28;20200;-73
2021/08/24 09:35:56;;;;;;;6.57;5.73;;;;;;;27.85;32.41;95058.28;5052036;28;20200;-66
2021/08/24 09:38:28;;;;;;;9.53;6.07;;;;;;;27.64;32.16;95052.56;5036483;28;20204;-69
2021/08/24 09:41:19;;;;;;;15.27;6.40;;;;;;;27.65;32.46;95054.09;5040305;28;20239;-66
2021/08/24 09:43:47;;;;;;;10.03;6.40;;;;;;;27.41;31.32;95046.41;5033795;28;20200;-67
2021/08/24 09:46:16;;;;;;;8.50;6.07;;;;;;;27.84;32.61;95045.97;5031717;28;20201;-70
2021/08/24 09:48:57;;;;;;;8.87;6.23;;;;;;;27.94;34.24;95035.38;5033559;28;20320;-67
2021/08/24 09:51:43;;;;;;;8.70;5.97;;;;;;;27.93;32.25;95011.50;5051735;28;20317;-66
2021/08/24 09:54:32;;;;;;;10.80;6.13;;;;;;;28.32;32.29;95039.78;5051574;28;20295;-66
2021/08/24 09:57:16;;;;;;;12.43;6.27;;;;;;;28.11;31.84;95034.09;5051389;28;20196;-67
2021/08/24 10:00:39;;;;;;;13.80;6.87;;;;;;;28.13;31.95;95031.81;5042061;28;20188;-74
2021/08/24 10:03:25;;;;;;;7.73;6.50;;;;;;;28.22;32.98;95028.84;5052213;28;20281;-71
2021/08/24 10:06:20;;;;;;;8.57;6.17;;;;;;;28.50;32.13;95023.88;5051142;28;20201;-68
2021/08/24 10:08:54;;;;;;;15.77;6.80;;;;;;;28.54;31.21;95025.50;5051928;28;20315;-74
2021/08/24 10:11:33;;;;;;;9.27;6.60;;;;;;;28.66;31.46;95017.19;5046061;28;20224;-68
2021/08/24 10:14:22;;;;;;;9.73;6.30;;;;;;;28.70;30.96;95007.19;5044855;28;20834;-69
2021/08/24 10:16:57;;;;;;;9.30;6.37;;;;;;;28.82;30.97;95001.56;5031211;28;20284;-70
2021/08/24 10:19:31;;;;;;;9.77;6.23;;;;;;;28.93;29.91;95002.47;5032359;28;20701;-65
2021/08/24 10:22:08;;;;;;;9.87;6.03;;;;;;;28.65;30.63;94998.66;5037686;28;20188;-67
2021/08/24 10:24:52;;;;;;;7.93;6.33;;;;;;;28.90;30.64;94995.09;5050864;28;20200;-67
2021/08/24 10:27:32;;;;;;;8.93;5.80;;;;;;;29.17;29.95;94986.94;5046267;28;20308;-66
2021/08/24 10:30:06;;;;;;;17.37;15.43;;;;;;;29.27;31.13;94986.28;5050738;28;20235;-68
2021/08/24 10:32:39;;;;;;;31.07;27.87;;;;;;;29.35;30.51;94982.47;5050875;28;20295;-74
2021/08/24 10:35:23;;;;;;;15.53;8.93;;;;;;;29.65;29.67;94983.13;5048272;28;20215;-69
2021/08/24 10:37:51;;;;;;;10.30;6.17;;;;;;;29.75;28.28;94977.84;5031251;28;20671;-68
2021/08/24 10:40:19;;;;;;;8.23;5.90;;;;;;;29.89;29.07;94974.44;5048137;28;20188;-65
2021/08/24 10:43:18;;;;;;;8.67;5.93;;;;;;;30.09;27.74;94980.41;5050563;28;20318;-69
2021/08/24 10:46:12;;;;;;;8.13;6.10;;;;;;;30.22;29.19;94971.56;5050856;28;20272;-67
2021/08/24 10:48:39;;;;;;;7.00;6.37;;;;;;;30.17;28.88;94960.34;5050334;28;20765;-67
2021/08/24 10:51:09;;;;;;;18.20;16.27;;;;;;;30.15;28.18;94966.13;5050758;28;20204;-64
2021/08/24 10:53:57;;;;;;;107.87;97.17;;;;;;;30.27;28.61;94965.09;5050462;28;20235;-65
2021/08/24 10:56:34;;;;;;;7.77;5.33;;;;;;;30.35;26.39;94963.94;5041956;28;20197;-68
2021/08/24 10:59:09;;;;;;;8.97;6.40;;;;;;;30.40;27.41;94960.91;5045258;28;20487;-67
2021/08/24 11:01:54;;;;;;;6.53;5.00;;;;;;;30.42;27.01;94964.75;5038135;28;20299;-67
2021/08/24 11:04:49;;;;;;;6.00;5.40;;;;;;;30.44;27.29;94956.25;5039249;28;20292;-68
2021/08/24 11:07:49;;;;;;;7.40;5.43;;;;;;;30.56;27.64;94954.03;5041013;28;20296;-64
2021/08/24 11:10:57;;;;;;;23.57;21.47;;;;;;;30.52;26.80;94947.81;5040375;28;20201;-67
2021/08/24 11:13:36;;;;;;;23.20;20.70;;;;;;;30.42;27.16;94943.13;5038517;28;20196;-67
2021/08/24 11:16:26;;;;;;;11.37;7.20;;;;;;;30.39;26.93;94949.31;5042797;28;20691;-67
2021/08/24 11:19:17;;;;;;;11.43;5.50;;;;;;;30.43;27.74;94939.28;5032753;28;20211;-66
2021/08/24 11:22:17;;;;;;;6.70;5.77;;;;;;;30.68;26.26;94942.84;5033581;28;20614;-66
2021/08/24 11:25:05;;;;;;;7.23;5.13;;;;;;;30.60;26.21;94943.22;5040189;28;20212;-69
2021/08/24 11:27:40;;;;;;;7.83;5.63;;;;;;;30.82;26.18;94945.63;5040017;28;20219;-69
2021/08/24 11:30:29;;;;;;;7.20;6.27;;;;;;;30.80;26.71;94937.06;5036627;28;20674;-71
2021/08/24 11:33:11;;;;;;;11.87;7.60;;;;;;;30.92;26.20;94932.50;5033895;28;20239;-67
2021/08/24 11:35:57;;;;;;;9.90;5.37;;;;;;;30.98;26.21;94941.78;5038529;28;20581;-70
2021/08/24 11:38:33;;;;;;;6.33;5.70;;;;;;;31.10;26.10;94933.31;5034831;28;20658;-68
2021/08/24 11:41:02;;;;;;;8.07;5.33;;;;;;;31.04;25.29;94941.03;5034288;28;20227;-67
2021/08/24 11:44:01;;;;;;;8.33;4.93;;;;;;;31.17;25.25;94938.75;5038352;28;20203;-69
2021/08/24 11:46:40;;;;;;;6.93;5.57;;;;;;;31.21;25.40;94931.38;5040625;28;20223;-69
2021/08/24 11:49:23;;;;;;;46.87;41.97;;;;;;;31.25;25.31;94924.03;5044973;28;20243;-67
2021/08/24 11:52:03;;;;;;;9.57;5.03;;;;;;;31.24;24.80;94930.63;5042910;28;20773;-67
2021/08/24 11:54:56;;;;;;;12.33;6.30;;;;;;;31.34;24.48;94930.63;5031015;28;20199;-65
2021/08/24 11:57:43;;;;;;;9.00;5.70;;;;;;;31.35;24.81;94929.50;5044257;28;20258;-67